首页
METAR-TAF:

METAR-TAF

机场 :

Griffiss_Air_Force_Base

羅馬, 紐約州, 美国

纬度: 43-14N, 经度: 075-24W, 海拔: 154米

当前天气观测

该预报发布于55分钟前的15:53 UTC
风速8节,风向东转东南
温度 21°C
湿度 88%
气压 1013 hPa
能見度: 11.3公里
少量云层高于7000英尺
多云层高于10000英尺
阴天层高于11000英尺
小雨

METAR: KRME 041553Z 11008KT 7SM -RA FEW070 BKN100 OVC110 21/19 A2991 RMK AO2 SLP124 P0005 T02110194

时间: 12:48 (16:48 UTC)

预报

该预报发布于50分钟前的15:58 UTC
预报有效从04日的 16点(UTC)到 05日的 12点(UTC)
风速7节,风向东转东南
能見度: 9.7公里
阴天层高于3500英尺
小阵雨
短暂存在
从 04日的 16点(UTC)到 04日的 19点(UTC)
能見度: 6.4公里
多云层高于1300英尺
阵雨, 轻雾
从 04日的 1900点(UTC)
风速7节,风向东转东北
能見度: 6.4公里
阴天层高于2000英尺
阵雨, 轻雾
从 04日的 2100点(UTC)
风速5节,风向多变
能見度: 3.2公里
阴天层高于2000英尺
大阵雨, 轻雾
从 05日的 0000点(UTC)
风速5节,风向西转西北
能見度: 10公里
阴天层高于3500英尺
从 05日的 0400点(UTC)
风速4节,风向西转西南
能見度: 9.7公里
多云层高于1200英尺
轻雾

TAF: KRME 041558Z 0416/0512 12007KT 6SM -SHRA OVC035 TEMPO 0416/0419 4SM SHRA BR BKN013 FM041900 07007KT 4SM SHRA BR OVC020 FM042100 VRB05KT 2SM +SHRA BR OVC020 FM050000 29005KT P6SM OVC035 FM050400 24004KT 6SM BR BKN012

超过4000个机场的气象观测和天气预报(METAR&TAF报告)。

可查询的气象台以黄色和红色小点在地图上表示。

将鼠标移到小点上方,可查看气象台名称。

然后点击查看天气观测和预报。

如需切换地图:点击带黑十字的绿色按钮放大地图;点击带横线的绿色按钮缩小地图;或者点击绿色箭头查看邻近地区的地图。


METAR-TAF: